Time;durP1;ratioP1;P1;durP2;ratioP2;P2;SDS_P1;SDS_P2;PMS_P1;PMS_P2;Temp;Humidity;BMP_temperature;BMP_pressure;BME280_temperature;BME280_humidity;BME280_pressure;Samples;Min_cycle;Max_cycle;Signal;HPM_P1;HPM_P2
2022/05/14 00:00:12;;;;;;;;;;;;;;;18.83;54.84;101738.66;1033596;28;717;-62
2022/05/14 00:01:02;;;;;;;;;;;;;;;18.83;54.59;101746.75;1032873;28;690;-62
2022/05/14 00:01:52;;;;;;;;;;;;;;;18.81;55.27;101741.47;1032889;28;691;-62
2022/05/14 00:02:43;;;;;;;;;;;;;;;18.82;54.96;101742.34;1033566;28;709;-62
2022/05/14 00:03:33;;;;;;;;;;;;;;;18.82;54.58;101742.34;1033553;28;635;-62
2022/05/14 00:04:24;;;;;;;;;;;;;;;18.80;55.28;101739.81;1033458;28;674;-62
2022/05/14 00:05:14;;;;;;;;;;;;;;;18.80;55.12;101741.63;1033342;28;1709;-63
2022/05/14 00:06:05;;;;;;;;;;;;;;;18.80;55.38;101738.94;1032761;28;717;-63
2022/05/14 00:06:55;;;;;;;;;;;;;;;18.80;55.33;101741.63;1032814;28;670;-63
2022/05/14 00:07:45;;;;;;;;;;;;;;;18.79;54.74;101737.22;1034085;28;642;-64
2022/05/14 00:08:36;;;;;;;;;;;;;;;18.78;54.93;101736.38;1034088;28;722;-63
2022/05/14 00:09:26;;;;;;;;;;;;;;;18.77;55.00;101737.34;1034271;28;623;-61
2022/05/14 00:10:17;;;;;;;;;;;;;;;18.78;55.02;101735.50;1038086;28;701;-62
2022/05/14 00:13:26;;;;;;;;;;;;;;;18.75;55.29;101733.94;1034366;28;682;-61
2022/05/14 00:14:16;;;;;;;;;;;;;;;18.75;54.95;101731.22;1030049;28;756;-61
2022/05/14 00:15:06;;;;;;;;;;;;;;;18.75;54.61;101735.78;1030082;28;623;-61
2022/05/14 00:15:57;;;;;;;;;;;;;;;18.75;55.59;101735.78;1029546;28;622;-62
2022/05/14 00:16:47;;;;;;;;;;;;;;;18.74;55.29;101729.50;1028899;28;651;-61
2022/05/14 00:17:38;;;;;;;;;;;;;;;18.73;54.65;101733.19;1029038;28;678;-61
2022/05/14 00:18:28;;;;;;;;;;;;;;;18.73;55.44;101733.19;1029561;28;772;-61
2022/05/14 00:19:19;;;;;;;;;;;;;;;18.72;54.97;101732.34;1028439;28;670;-62
2022/05/14 00:20:09;;;;;;;;;;;;;;;18.73;55.41;101738.59;1024217;29;1083;-62
2022/05/14 00:21:00;;;;;;;;;;;;;;;18.72;55.03;101736.88;1025766;28;1684;-61
2022/05/14 00:21:50;;;;;;;;;;;;;;;18.71;55.38;101735.16;1032308;28;600;-61
2022/05/14 00:22:41;;;;;;;;;;;;;;;18.70;55.01;101728.06;1037345;28;709;-61
2022/05/14 00:23:31;;;;;;;;;;;;;;;18.70;55.63;101733.44;1037333;28;721;-62
2022/05/14 00:24:23;;;;;;;;;;;;;;;18.71;55.06;101729.75;1032007;28;690;-61
2022/05/14 00:25:13;;;;;;;;;;;;;;;18.69;54.97;101721.78;1032856;28;623;-62
2022/05/14 00:26:04;;;;;;;;;;;;;;;18.69;55.24;101726.34;1033490;28;654;-62
2022/05/14 00:26:54;;;;;;;;;;;;;;;18.69;54.81;101729.03;1033553;28;635;-62
2022/05/14 00:27:45;;;;;;;;;;;;;;;18.68;54.89;101730.03;1033324;28;721;-62
2022/05/14 00:28:35;;;;;;;;;;;;;;;18.68;54.98;101728.19;1031553;28;718;-62
2022/05/14 00:29:27;;;;;;;;;;;;;;;18.68;55.21;101732.72;1033431;28;686;-63
2022/05/14 00:30:17;;;;;;;;;;;;;;;18.68;55.17;101730.03;1032762;28;635;-62
2022/05/14 00:31:09;;;;;;;;;;;;;;;18.67;54.55;101725.59;1033334;28;651;-62
2022/05/14 00:31:59;;;;;;;;;;;;;;;18.66;54.88;101732.00;1032305;28;655;-63
2022/05/14 00:32:50;;;;;;;;;;;;;;;18.67;55.96;101731.00;1033474;28;685;-62
2022/05/14 00:33:40;;;;;;;;;;;;;;;18.66;54.55;101723.88;1033338;28;615;-62
2022/05/14 00:34:31;;;;;;;;;;;;;;;18.65;55.72;101723.03;1033502;28;658;-62
2022/05/14 00:35:21;;;;;;;;;;;;;;;18.65;55.71;101720.34;1033397;28;899;-62
2022/05/14 00:36:12;;;;;;;;;;;;;;;18.64;55.80;101718.63;1033395;28;748;-63
2022/05/14 00:37:03;;;;;;;;;;;;;;;18.64;54.88;101718.63;1032503;28;1890;-62
2022/05/14 00:37:53;;;;;;;;;;;;;;;18.64;55.33;101720.47;1032270;28;682;-63
2022/05/14 00:38:44;;;;;;;;;;;;;;;18.64;55.45;101709.66;1033873;28;1710;-61
2022/05/14 00:39:34;;;;;;;;;;;;;;;18.63;55.43;101714.19;1032682;28;760;-63
2022/05/14 00:40:24;;;;;;;;;;;;;;;18.62;55.12;101712.53;1033972;28;673;-63
2022/05/14 00:41:15;;;;;;;;;;;;;;;18.63;54.96;101716.06;1029051;28;706;-62
2022/05/14 00:42:06;;;;;;;;;;;;;;;18.62;55.78;101711.66;1028449;28;631;-62
2022/05/14 00:42:56;;;;;;;;;;;;;;;18.61;55.19;101710.81;1031580;28;635;-60
2022/05/14 00:43:47;;;;;;;;;;;;;;;18.61;54.70;101718.06;1033457;28;668;-62
2022/05/14 00:44:37;;;;;;;;;;;;;;;18.62;55.04;101712.53;1034090;28;713;-62
2022/05/14 00:45:28;;;;;;;;;;;;;;;18.63;54.92;101721.47;1032715;28;679;-61
2022/05/14 00:46:18;;;;;;;;;;;;;;;18.63;55.44;101716.06;1033416;28;654;-62
2022/05/14 00:47:09;;;;;;;;;;;;;;;18.63;55.20;101718.78;1034601;28;689;-62
2022/05/14 00:47:59;;;;;;;;;;;;;;;18.62;55.17;101723.31;1033334;28;744;-61
2022/05/14 00:48:51;;;;;;;;;;;;;;;18.61;55.28;101723.44;1032881;28;663;-62
2022/05/14 00:49:42;;;;;;;;;;;;;;;18.61;54.90;101723.44;1033449;28;682;-62
2022/05/14 00:50:32;;;;;;;;;;;;;;;18.61;54.97;101723.44;1033981;28;1333;-61
2022/05/14 00:51:28;;;;;;;;;;;;;;;18.61;55.83;101720.75;1029576;28;654;-62
2022/05/14 00:52:18;;;;;;;;;;;;;;;18.60;55.20;101721.72;1028936;28;1619;-63
2022/05/14 00:53:08;;;;;;;;;;;;;;;18.60;55.14;101721.72;1029423;28;626;-61
2022/05/14 00:53:59;;;;;;;;;;;;;;;18.61;55.60;101731.53;1028803;28;690;-61
2022/05/14 00:54:49;;;;;;;;;;;;;;;18.60;55.26;101716.34;1029065;28;690;-61
2022/05/14 00:55:40;;;;;;;;;;;;;;;18.59;55.43;101722.72;1028996;28;638;-61
2022/05/14 00:56:30;;;;;;;;;;;;;;;18.59;54.89;101720.03;1029359;28;694;-62
2022/05/14 00:57:20;;;;;;;;;;;;;;;18.58;55.89;101718.28;1029139;28;1982;-62
2022/05/14 00:58:11;;;;;;;;;;;;;;;18.58;55.67;101724.53;1028862;28;670;-61
2022/05/14 00:59:01;;;;;;;;;;;;;;;18.58;55.09;101719.13;1029363;28;674;-62
2022/05/14 00:59:52;;;;;;;;;;;;;;;18.58;55.03;101723.66;1029185;28;642;-62
2022/05/14 01:00:42;;;;;;;;;;;;;;;18.57;54.96;101727.34;1029312;28;1602;-62
2022/05/14 01:01:33;;;;;;;;;;;;;;;18.56;55.42;101721.09;1033417;28;645;-61
2022/05/14 01:02:23;;;;;;;;;;;;;;;18.55;55.22;101724.78;1033416;28;697;-61
2022/05/14 01:03:13;;;;;;;;;;;;;;;18.56;55.17;101725.63;1033222;28;634;-61
2022/05/14 01:04:04;;;;;;;;;;;;;;;18.55;55.85;101718.53;1032987;28;685;-61
2022/05/14 01:04:54;;;;;;;;;;;;;;;18.55;55.25;101719.38;1033411;28;671;-61
2022/05/14 01:05:45;;;;;;;;;;;;;;;18.55;54.96;101723.94;1033307;28;662;-61
2022/05/14 01:06:35;;;;;;;;;;;;;;;18.54;55.62;101728.47;1033359;28;697;-61
2022/05/14 01:07:27;;;;;;;;;;;;;;;18.54;55.69;101724.91;1033308;28;717;-61
2022/05/14 01:08:17;;;;;;;;;;;;;;;18.54;56.06;101724.91;1032517;28;710;-60
2022/05/14 01:09:08;;;;;;;;;;;;;;;18.54;55.25;101727.59;1029702;28;679;-61
2022/05/14 01:09:58;;;;;;;;;;;;;;;18.53;55.08;101725.88;1028872;28;627;-60
2022/05/14 01:10:49;;;;;;;;;;;;;;;18.52;55.04;101725.03;1028924;28;711;-60
2022/05/14 01:11:39;;;;;;;;;;;;;;;18.52;55.00;101730.44;1028601;28;714;-61
2022/05/14 01:12:30;;;;;;;;;;;;;;;18.52;56.09;101726.88;1029781;28;634;-61
2022/05/14 01:13:20;;;;;;;;;;;;;;;18.50;55.62;101729.69;1028660;28;643;-61
2022/05/14 01:14:10;;;;;;;;;;;;;;;18.52;55.81;101730.44;1028677;28;646;-61
2022/05/14 01:15:02;;;;;;;;;;;;;;;18.51;55.78;101726.00;1029796;28;627;-62
2022/05/14 01:15:52;;;;;;;;;;;;;;;18.50;55.14;101724.31;1025569;28;764;-61
2022/05/14 01:16:43;;;;;;;;;;;;;;;18.51;55.61;101722.47;1023941;29;628;-61
2022/05/14 01:17:33;;;;;;;;;;;;;;;18.50;55.15;101729.69;1028673;28;722;-62
2022/05/14 01:18:23;;;;;;;;;;;;;;;18.50;55.07;101723.44;1027572;28;635;-61
2022/05/14 01:19:14;;;;;;;;;;;;;;;18.48;56.16;101723.56;1028724;28;861;-61
2022/05/14 01:20:04;;;;;;;;;;;;;;;18.48;56.19;101734.38;1028643;28;671;-61
2022/05/14 01:20:55;;;;;;;;;;;;;;;18.47;55.75;101735.34;1028694;28;698;-61
2022/05/14 01:21:48;;;;;;;;;;;;;;;18.47;55.56;101724.56;1034531;28;650;-61
2022/05/14 01:22:38;;;;;;;;;;;;;;;18.47;55.89;101727.25;1032667;28;729;-61
2022/05/14 01:23:29;;;;;;;;;;;;;;;18.46;55.42;101735.47;1029396;28;662;-61
2022/05/14 01:26:38;;;;;;;;;;;;;;;18.47;55.29;101734.50;1033193;28;634;-61
2022/05/14 01:27:28;;;;;;;;;;;;;;;18.46;55.38;101730.09;1032628;28;721;-61
2022/05/14 01:28:18;;;;;;;;;;;;;;;18.46;55.64;101727.38;1033813;28;678;-61
2022/05/14 01:29:09;;;;;;;;;;;;;;;18.46;55.93;101730.09;1033837;28;631;-61
2022/05/14 01:29:59;;;;;;;;;;;;;;;18.45;55.27;101731.09;1033169;28;811;-60
2022/05/14 01:30:50;;;;;;;;;;;;;;;18.45;55.22;101731.09;1028391;28;761;-60
2022/05/14 01:31:41;;;;;;;;;;;;;;;18.44;55.21;101732.06;1028918;28;615;-59
2022/05/14 01:32:31;;;;;;;;;;;;;;;18.45;55.92;101740.03;1031674;28;699;-59
2022/05/14 01:33:21;;;;;;;;;;;;;;;18.44;55.67;101734.78;1032592;28;651;-60
2022/05/14 01:34:12;;;;;;;;;;;;;;;18.43;56.08;101733.06;1032785;28;669;-60
2022/05/14 01:35:02;;;;;;;;;;;;;;;18.43;55.55;101736.63;1033716;28;634;-61
2022/05/14 01:35:53;;;;;;;;;;;;;;;18.44;55.26;101742.88;1033779;28;657;-61
2022/05/14 01:36:43;;;;;;;;;;;;;;;18.43;55.96;101736.63;1033927;28;701;-60
2022/05/14 01:37:34;;;;;;;;;;;;;;;18.43;56.22;101744.72;1033692;28;642;-61
2022/05/14 01:38:25;;;;;;;;;;;;;;;18.42;55.72;101740.31;1029351;28;719;-60
2022/05/14 01:39:15;;;;;;;;;;;;;;;18.43;55.61;101741.16;1027884;28;755;-60
2022/05/14 01:40:05;;;;;;;;;;;;;;;18.42;55.17;101744.84;1032414;28;1683;-60
2022/05/14 01:40:56;;;;;;;;;;;;;;;18.41;55.62;101746.69;1029454;28;1152;-61
2022/05/14 01:41:46;;;;;;;;;;;;;;;18.41;55.73;101748.53;1028447;28;627;-60
2022/05/14 01:42:37;;;;;;;;;;;;;;;18.41;55.71;101748.53;1029132;28;639;-60
2022/05/14 01:43:27;;;;;;;;;;;;;;;18.42;55.79;101747.53;1025373;28;690;-60
2022/05/14 01:44:17;;;;;;;;;;;;;;;18.39;55.23;101740.56;1024726;29;670;-60
2022/05/14 01:45:08;;;;;;;;;;;;;;;18.41;56.11;101741.28;1024879;28;721;-60
2022/05/14 01:45:58;;;;;;;;;;;;;;;18.39;55.94;101746.81;1026069;28;650;-60
2022/05/14 01:46:49;;;;;;;;;;;;;;;18.39;55.32;101738.72;1028995;28;631;-60
2022/05/14 01:47:39;;;;;;;;;;;;;;;18.38;55.29;101733.44;1025178;28;597;-60
2022/05/14 01:48:29;;;;;;;;;;;;;;;18.38;55.98;101742.41;1024853;29;678;-59
2022/05/14 01:49:20;;;;;;;;;;;;;;;18.38;55.23;101742.41;1028641;28;718;-60
2022/05/14 01:50:10;;;;;;;;;;;;;;;18.38;55.88;101745.09;1028554;28;1726;-60
2022/05/14 01:51:01;;;;;;;;;;;;;;;18.37;55.65;101740.69;1029091;28;619;-60
2022/05/14 01:51:51;;;;;;;;;;;;;;;18.37;55.76;101743.38;1028754;28;729;-60
2022/05/14 01:52:41;;;;;;;;;;;;;;;18.37;56.30;101745.22;1024208;29;710;-60
2022/05/14 01:53:32;;;;;;;;;;;;;;;18.36;55.75;101747.06;1027838;28;683;-60
2022/05/14 01:54:22;;;;;;;;;;;;;;;18.36;55.35;101748.91;1028865;28;603;-60
2022/05/14 01:55:13;;;;;;;;;;;;;;;18.36;55.84;101752.47;1028731;28;639;-61
2022/05/14 01:56:03;;;;;;;;;;;;;;;18.35;56.19;101748.03;1028489;28;671;-60
2022/05/14 01:56:54;;;;;;;;;;;;;;;18.36;55.38;101747.06;1029179;28;646;-60
2022/05/14 01:57:44;;;;;;;;;;;;;;;18.35;55.64;101744.47;1029307;28;725;-61
2022/05/14 01:58:38;;;;;;;;;;;;;;;18.35;55.29;101744.47;1029474;28;639;-60
2022/05/14 01:59:28;;;;;;;;;;;;;;;18.33;55.93;101747.31;1024923;29;694;-59
2022/05/14 02:00:18;;;;;;;;;;;;;;;18.34;56.23;101749.03;1024679;29;1463;-59
2022/05/14 02:01:09;;;;;;;;;;;;;;;18.34;55.93;101745.47;1027790;28;671;-59
2022/05/14 02:02:00;;;;;;;;;;;;;;;18.33;55.96;101750.00;1028288;28;615;-60
2022/05/14 02:02:51;;;;;;;;;;;;;;;18.33;55.59;101747.31;1023864;29;703;-60
2022/05/14 02:03:41;;;;;;;;;;;;;;;18.33;56.14;101747.31;1023950;29;686;-59
2022/05/14 02:04:32;;;;;;;;;;;;;;;18.32;55.50;101748.28;1027421;28;671;-59
2022/05/14 02:05:23;;;;;;;;;;;;;;;18.32;55.87;101747.44;1030049;28;729;-59
2022/05/14 02:06:13;;;;;;;;;;;;;;;18.31;56.14;101751.97;1029103;28;721;-59
2022/05/14 02:07:04;;;;;;;;;;;;;;;18.30;56.07;101744.84;1025080;28;686;-59
2022/05/14 02:07:54;;;;;;;;;;;;;;;18.32;56.22;101750.13;1026146;28;599;-59
2022/05/14 02:08:45;;;;;;;;;;;;;;;18.30;56.31;101750.25;1027827;28;635;-59
2022/05/14 02:09:35;;;;;;;;;;;;;;;18.30;56.01;101747.56;1024981;29;686;-60
2022/05/14 02:10:25;;;;;;;;;;;;;;;18.31;55.81;101751.13;1024194;29;730;-60
2022/05/14 02:11:16;;;;;;;;;;;;;;;18.29;56.37;101750.38;1028446;28;674;-60
2022/05/14 02:12:06;;;;;;;;;;;;;;;18.29;56.11;101751.25;1028676;28;721;-60
2022/05/14 02:12:57;;;;;;;;;;;;;;;18.29;56.17;101751.25;1029737;28;658;-60
2022/05/14 02:13:48;;;;;;;;;;;;;;;18.29;55.42;101753.06;1031572;28;1880;-60
2022/05/14 02:14:38;;;;;;;;;;;;;;;18.28;55.42;101748.66;1033612;28;1631;-60
2022/05/14 02:15:29;;;;;;;;;;;;;;;18.27;55.18;101745.09;1032497;28;627;-60
2022/05/14 02:16:19;;;;;;;;;;;;;;;18.27;55.80;101744.28;1032063;28;663;-60
2022/05/14 02:17:09;;;;;;;;;;;;;;;18.27;56.32;101746.97;1032408;28;1950;-60
2022/05/14 02:18:00;;;;;;;;;;;;;;;18.26;56.26;101746.13;1032563;28;764;-60
2022/05/14 02:18:50;;;;;;;;;;;;;;;18.27;55.76;101747.81;1032470;28;733;-60
2022/05/14 02:19:41;;;;;;;;;;;;;;;18.26;55.85;101751.53;1032248;28;1583;-60
2022/05/14 02:20:31;;;;;;;;;;;;;;;18.26;55.87;101750.66;1032151;28;643;-60
2022/05/14 02:21:24;;;;;;;;;;;;;;;18.25;55.88;101746.25;1032466;28;651;-61
2022/05/14 02:22:15;;;;;;;;;;;;;;;18.26;55.84;101762.31;1032046;28;741;-60
2022/05/14 02:23:05;;;;;;;;;;;;;;;18.25;56.23;101752.50;1032255;28;749;-60
2022/05/14 02:23:56;;;;;;;;;;;;;;;18.24;55.93;101756.19;1032536;28;690;-59
2022/05/14 02:24:46;;;;;;;;;;;;;;;18.25;55.66;101757.03;1032610;28;674;-60
2022/05/14 02:25:36;;;;;;;;;;;;;;;18.24;55.96;101761.59;1032326;28;690;-60
2022/05/14 02:26:27;;;;;;;;;;;;;;;18.24;55.75;101758.03;1036890;28;667;-60
2022/05/14 02:27:17;;;;;;;;;;;;;;;18.23;55.34;101754.47;1034984;28;674;-60
2022/05/14 02:28:08;;;;;;;;;;;;;;;18.23;56.25;101757.16;1031569;28;725;-60
2022/05/14 02:28:58;;;;;;;;;;;;;;;18.22;55.97;101755.44;1032369;28;749;-60
2022/05/14 02:29:53;;;;;;;;;;;;;;;18.22;56.18;101752.75;1032295;28;1702;-60
2022/05/14 02:30:44;;;;;;;;;;;;;;;18.21;55.84;101756.44;1030800;28;663;-60
2022/05/14 02:31:34;;;;;;;;;;;;;;;18.20;55.30;101757.41;1032488;28;646;-60
2022/05/14 02:32:24;;;;;;;;;;;;;;;18.21;56.07;101752.88;1033011;28;713;-60
2022/05/14 02:33:15;;;;;;;;;;;;;;;18.21;55.52;101752.88;1033328;28;623;-61
2022/05/14 02:34:05;;;;;;;;;;;;;;;18.20;55.75;101749.31;1037542;28;744;-61
2022/05/14 02:34:57;;;;;;;;;;;;;;;18.21;56.31;101744.78;1035132;28;607;-61
2022/05/14 02:35:48;;;;;;;;;;;;;;;18.19;55.27;101753.00;1033740;28;689;-61
2022/05/14 02:36:38;;;;;;;;;;;;;;;18.19;55.90;101750.31;1033018;28;694;-61
2022/05/14 02:37:28;;;;;;;;;;;;;;;18.19;56.18;101749.44;1032363;28;1931;-62
2022/05/14 02:38:19;;;;;;;;;;;;;;;18.20;56.32;101757.41;1031900;28;667;-62
2022/05/14 02:39:09;;;;;;;;;;;;;;;18.19;55.50;101750.31;1028710;28;717;-61
2022/05/14 02:40:00;;;;;;;;;;;;;;;18.18;55.31;101755.81;1027517;28;742;-61
2022/05/14 02:40:50;;;;;;;;;;;;;;;18.19;56.35;101754.84;1032883;28;1202;-61
2022/05/14 02:41:40;;;;;;;;;;;;;;;18.18;55.98;101753.13;1032566;28;623;-62
2022/05/14 02:42:31;;;;;;;;;;;;;;;18.18;56.51;101758.53;1032966;28;658;-61
2022/05/14 02:43:21;;;;;;;;;;;;;;;18.17;55.50;101754.09;1033107;28;639;-61
2022/05/14 02:44:12;;;;;;;;;;;;;;;18.18;56.06;101758.53;1032464;28;659;-61
2022/05/14 02:45:02;;;;;;;;;;;;;;;18.17;56.27;101756.81;1032528;28;643;-61
2022/05/14 02:45:53;;;;;;;;;;;;;;;18.17;56.46;101756.81;1033323;28;1678;-60
2022/05/14 02:46:44;;;;;;;;;;;;;;;18.16;56.19;101753.25;1032383;28;638;-62
2022/05/14 02:47:34;;;;;;;;;;;;;;;18.16;56.28;101755.94;1031866;28;1678;-61
2022/05/14 02:48:25;;;;;;;;;;;;;;;18.16;56.40;101749.69;1032230;28;674;-61
2022/05/14 02:49:16;;;;;;;;;;;;;;;18.16;56.08;101749.69;1031811;28;638;-61
2022/05/14 02:50:06;;;;;;;;;;;;;;;18.15;56.21;101751.53;1032499;28;643;-60
2022/05/14 02:51:00;;;;;;;;;;;;;;;18.16;56.00;101752.38;1032267;28;1198;-60
2022/05/14 02:51:50;;;;;;;;;;;;;;;18.15;56.20;101754.22;1032903;28;667;-61
2022/05/14 02:52:41;;;;;;;;;;;;;;;18.14;55.53;101757.91;1033039;28;721;-61
2022/05/14 02:53:31;;;;;;;;;;;;;;;18.14;55.95;101752.50;1032420;28;729;-61
2022/05/14 02:54:22;;;;;;;;;;;;;;;18.14;56.30;101749.81;1032822;28;642;-61
2022/05/14 02:55:12;;;;;;;;;;;;;;;18.15;55.63;101759.63;1033003;28;666;-59
2022/05/14 02:56:03;;;;;;;;;;;;;;;18.13;55.80;101753.50;1033062;28;662;-60
2022/05/14 02:56:53;;;;;;;;;;;;;;;18.14;56.21;101752.50;1028024;28;756;-60
2022/05/14 02:57:43;;;;;;;;;;;;;;;18.12;56.24;101759.00;1029172;28;688;-60
2022/05/14 02:59:43;;;;;;;;;;;;;;;18.12;56.62;101751.78;1032102;28;762;-60
2022/05/14 03:00:34;;;;;;;;;;;;;;;18.11;56.54;101755.47;1032836;28;615;-60
2022/05/14 03:01:24;;;;;;;;;;;;;;;18.12;55.68;101759.88;1032898;28;706;-60
2022/05/14 03:02:14;;;;;;;;;;;;;;;18.12;55.70;101759.88;1024523;29;690;-62
2022/05/14 03:03:05;;;;;;;;;;;;;;;18.12;56.56;101757.19;1024616;29;745;-61
2022/05/14 03:03:55;;;;;;;;;;;;;;;18.10;55.78;101756.44;1028237;28;694;-62
2022/05/14 03:04:48;;;;;;;;;;;;;;;18.11;56.59;101757.28;1030015;28;670;-61
2022/05/14 03:05:38;;;;;;;;;;;;;;;18.10;56.03;101756.44;1029504;28;587;-62
2022/05/14 03:06:29;;;;;;;;;;;;;;;18.10;55.84;101753.75;1028253;28;639;-62
2022/05/14 03:07:19;;;;;;;;;;;;;;;18.10;55.90;101760.97;1030056;28;780;-62
2022/05/14 03:08:10;;;;;;;;;;;;;;;18.10;55.72;101755.56;1029772;28;737;-62
2022/05/14 03:09:00;;;;;;;;;;;;;;;18.09;56.27;101746.66;1027764;28;666;-62
2022/05/14 03:09:51;;;;;;;;;;;;;;;18.09;56.00;101753.91;1028391;28;706;-62
2022/05/14 03:10:41;;;;;;;;;;;;;;;18.09;56.65;101751.19;1028429;28;694;-63
2022/05/14 03:11:32;;;;;;;;;;;;;;;18.08;56.20;101753.03;1029044;28;623;-62
2022/05/14 03:12:23;;;;;;;;;;;;;;;18.07;56.28;101751.31;1029381;28;690;-63
2022/05/14 03:13:14;;;;;;;;;;;;;;;18.07;56.47;101754.03;1028480;28;773;-62
2022/05/14 03:14:04;;;;;;;;;;;;;;;18.07;56.19;101753.16;1028974;28;710;-63
2022/05/14 03:14:55;;;;;;;;;;;;;;;18.08;56.67;101747.66;1028247;28;705;-62
2022/05/14 03:15:45;;;;;;;;;;;;;;;18.07;56.47;101753.16;1028510;28;706;-63
2022/05/14 03:16:36;;;;;;;;;;;;;;;18.06;55.52;101760.41;1030058;28;650;-63
2022/05/14 03:17:26;;;;;;;;;;;;;;;18.06;56.66;101765.78;1028406;28;1894;-62
2022/05/14 03:18:17;;;;;;;;;;;;;;;18.05;56.62;101758.69;1033080;28;717;-63
2022/05/14 03:19:07;;;;;;;;;;;;;;;18.07;55.51;101766.66;1032153;28;666;-63
2022/05/14 03:19:58;;;;;;;;;;;;;;;18.05;56.58;101761.38;1027943;28;634;-63
2022/05/14 03:20:48;;;;;;;;;;;;;;;18.04;56.67;101759.66;1029928;28;732;-62
2022/05/14 03:21:38;;;;;;;;;;;;;;;18.03;55.63;101753.41;1028884;28;619;-62
2022/05/14 03:22:29;;;;;;;;;;;;;;;18.03;55.69;101758.81;1025810;28;619;-62
2022/05/14 03:23:19;;;;;;;;;;;;;;;18.03;55.73;101755.25;1024723;29;729;-62
2022/05/14 03:24:10;;;;;;;;;;;;;;;18.02;56.19;101762.47;1028294;28;694;-62
2022/05/14 03:25:01;;;;;;;;;;;;;;;18.04;56.03;101759.66;1029438;28;642;-62
2022/05/14 03:25:51;;;;;;;;;;;;;;;18.02;56.06;101756.22;1028480;28;709;-62
2022/05/14 03:26:41;;;;;;;;;;;;;;;18.02;56.33;101762.47;1028841;28;765;-62
2022/05/14 03:27:32;;;;;;;;;;;;;;;18.01;55.71;101755.38;1028341;28;651;-62
2022/05/14 03:28:22;;;;;;;;;;;;;;;18.01;56.45;101758.06;1028480;28;649;-62
2022/05/14 03:29:13;;;;;;;;;;;;;;;18.02;55.69;101758.94;1027657;28;642;-62
2022/05/14 03:30:03;;;;;;;;;;;;;;;18.02;56.44;101753.53;1028216;28;651;-62
2022/05/14 03:30:54;;;;;;;;;;;;;;;18.02;56.67;101753.53;1029968;28;658;-62
2022/05/14 03:31:45;;;;;;;;;;;;;;;18.00;56.31;101760.88;1028551;28;726;-62
2022/05/14 03:32:35;;;;;;;;;;;;;;;18.00;56.10;101764.44;1030071;28;790;-62
2022/05/14 03:33:26;;;;;;;;;;;;;;;18.00;55.76;101755.50;1029019;28;634;-62
2022/05/14 03:34:17;;;;;;;;;;;;;;;18.00;56.20;101760.88;1025370;29;646;-62
2022/05/14 03:35:08;;;;;;;;;;;;;;;17.99;56.03;101757.34;1024158;29;719;-62
2022/05/14 03:35:58;;;;;;;;;;;;;;;17.99;56.76;101759.16;1027692;28;670;-63
2022/05/14 03:36:49;;;;;;;;;;;;;;;17.98;56.24;101758.31;1029117;28;639;-62
2022/05/14 03:37:39;;;;;;;;;;;;;;;17.98;56.14;101760.16;1029063;28;634;-62
2022/05/14 03:38:30;;;;;;;;;;;;;;;17.98;56.14;101757.44;1028954;28;730;-62
2022/05/14 03:39:20;;;;;;;;;;;;;;;17.98;56.39;101757.44;1029641;28;710;-62
2022/05/14 03:40:11;;;;;;;;;;;;;;;17.98;56.36;101757.44;1029599;28;633;-62
2022/05/14 03:41:02;;;;;;;;;;;;;;;17.97;55.74;101756.59;1029968;28;1326;-62
2022/05/14 03:41:53;;;;;;;;;;;;;;;17.98;56.17;101758.31;1029132;28;818;-62
2022/05/14 03:42:45;;;;;;;;;;;;;;;17.98;56.64;101757.44;1030189;28;706;-62
2022/05/14 03:43:37;;;;;;;;;;;;;;;17.96;56.29;101760.28;1030145;28;650;-62
2022/05/14 03:44:27;;;;;;;;;;;;;;;17.97;56.49;101761.13;1030694;28;646;-62
2022/05/14 03:45:18;;;;;;;;;;;;;;;17.97;56.67;101763.81;1033848;28;812;-62
2022/05/14 03:46:10;;;;;;;;;;;;;;;17.96;56.67;101762.97;1034446;28;839;-62
2022/05/14 03:47:00;;;;;;;;;;;;;;;17.96;56.06;101762.97;1032701;28;752;-61
2022/05/14 03:47:51;;;;;;;;;;;;;;;17.97;56.26;101762.00;1030543;28;698;-61
2022/05/14 03:48:41;;;;;;;;;;;;;;;17.97;56.41;101763.81;1029937;28;662;-61
2022/05/14 03:49:32;;;;;;;;;;;;;;;17.96;55.74;101765.66;1029620;28;1656;-61
2022/05/14 03:50:22;;;;;;;;;;;;;;;17.96;56.42;101764.81;1029398;28;689;-63
2022/05/14 03:51:12;;;;;;;;;;;;;;;17.96;56.15;101767.50;1028176;28;714;-61
2022/05/14 03:52:03;;;;;;;;;;;;;;;17.96;56.14;101770.19;1032041;28;631;-61
2022/05/14 03:52:53;;;;;;;;;;;;;;;17.96;56.30;101767.50;1033033;28;682;-61
2022/05/14 03:53:44;;;;;;;;;;;;;;;17.95;56.28;101763.09;1033559;28;627;-61
2022/05/14 03:54:34;;;;;;;;;;;;;;;17.95;56.36;101768.47;1033104;28;701;-61
2022/05/14 03:55:24;;;;;;;;;;;;;;;17.94;56.45;101761.38;1032998;28;718;-61
2022/05/14 03:56:15;;;;;;;;;;;;;;;17.94;55.93;101773.03;1032952;28;851;-60
2022/05/14 03:57:06;;;;;;;;;;;;;;;17.94;56.26;101766.78;1034140;28;694;-61
2022/05/14 03:57:57;;;;;;;;;;;;;;;17.93;56.54;101771.31;1033759;28;654;-61
2022/05/14 03:58:47;;;;;;;;;;;;;;;17.93;56.23;101771.31;1033091;28;643;-61
2022/05/14 03:59:38;;;;;;;;;;;;;;;17.92;56.27;101771.44;1029217;28;638;-61
2022/05/14 04:00:28;;;;;;;;;;;;;;;17.93;55.94;101767.75;1028764;28;694;-61
2022/05/14 04:01:19;;;;;;;;;;;;;;;17.94;55.98;101769.47;1033473;28;773;-60
2022/05/14 04:02:09;;;;;;;;;;;;;;;17.94;56.05;101772.16;1033088;28;675;-60
2022/05/14 04:02:59;;;;;;;;;;;;;;;17.93;56.02;101773.13;1032954;28;749;-60
2022/05/14 04:03:50;;;;;;;;;;;;;;;17.94;55.96;101778.41;1033026;28;713;-60
2022/05/14 04:04:41;;;;;;;;;;;;;;;17.93;56.83;101773.13;1034044;28;713;-60
2022/05/14 04:05:31;;;;;;;;;;;;;;;17.93;56.13;101776.69;1032942;28;1725;-60
2022/05/14 04:06:22;;;;;;;;;;;;;;;17.92;55.98;101774.13;1033114;28;1655;-61
2022/05/14 04:07:12;;;;;;;;;;;;;;;17.92;56.37;101768.72;1033479;28;1651;-61
2022/05/14 04:08:03;;;;;;;;;;;;;;;17.91;56.81;101777.84;1033190;28;666;-61
2022/05/14 04:08:53;;;;;;;;;;;;;;;17.91;57.00;101776.00;1034154;28;705;-60
2022/05/14 04:09:44;;;;;;;;;;;;;;;17.90;56.97;101774.28;1034199;28;654;-60
2022/05/14 04:10:34;;;;;;;;;;;;;;;17.90;56.06;101770.72;1036601;28;670;-62
2022/05/14 04:11:25;;;;;;;;;;;;;;;17.90;56.45;101770.72;1036517;28;694;-61
2022/05/14 04:12:15;;;;;;;;;;;;;;;17.90;56.45;101770.72;1033263;28;662;-62
2022/05/14 04:13:06;;;;;;;;;;;;;;;17.91;56.17;101773.28;1033844;28;788;-60
2022/05/14 04:13:57;;;;;;;;;;;;;;;17.90;56.27;101773.41;1033841;28;687;-61
2022/05/14 04:14:47;;;;;;;;;;;;;;;17.89;55.69;101763.59;1032913;28;699;-59
2022/05/14 04:15:37;;;;;;;;;;;;;;;17.90;56.23;101768.88;1033388;28;711;-61
2022/05/14 04:16:28;;;;;;;;;;;;;;;17.91;56.09;101769.75;1033302;28;643;-59
2022/05/14 04:17:18;;;;;;;;;;;;;;;17.90;56.46;101776.13;1033483;28;1894;-60
2022/05/14 04:18:09;;;;;;;;;;;;;;;17.90;56.10;101776.13;1033364;28;678;-60
2022/05/14 04:19:00;;;;;;;;;;;;;;;17.90;56.21;101773.41;1032772;28;844;-60
2022/05/14 04:19:50;;;;;;;;;;;;;;;17.88;56.21;101776.25;1033370;28;702;-60
2022/05/14 04:20:40;;;;;;;;;;;;;;;17.90;56.42;101781.50;1034641;28;659;-60
2022/05/14 04:21:32;;;;;;;;;;;;;;;17.89;56.33;101780.66;1034724;28;690;-60
2022/05/14 04:22:22;;;;;;;;;;;;;;;17.89;56.69;101782.50;1034666;28;748;-61
2022/05/14 04:23:13;;;;;;;;;;;;;;;17.89;56.20;101780.66;1030466;28;998;-60
2022/05/14 04:24:03;;;;;;;;;;;;;;;17.89;56.18;101779.78;1029063;28;730;-60
2022/05/14 04:24:54;;;;;;;;;;;;;;;17.88;56.75;101776.25;1029189;28;538;-60
2022/05/14 04:25:44;;;;;;;;;;;;;;;17.89;56.46;101777.94;1029677;28;670;-60
2022/05/14 04:26:35;;;;;;;;;;;;;;;17.90;56.27;101786.91;1029120;28;635;-60
2022/05/14 04:27:25;;;;;;;;;;;;;;;17.90;55.77;101781.50;1029229;28;650;-60
2022/05/14 04:28:16;;;;;;;;;;;;;;;17.88;56.26;101778.94;1030619;28;650;-60
2022/05/14 04:29:06;;;;;;;;;;;;;;;17.88;56.42;101786.16;1030494;28;666;-60
2022/05/14 04:29:57;;;;;;;;;;;;;;;17.87;56.19;101782.59;1028925;28;715;-60
2022/05/14 04:30:48;;;;;;;;;;;;;;;17.88;56.20;101780.78;1029879;28;849;-62
2022/05/14 04:31:39;;;;;;;;;;;;;;;17.89;56.34;101777.09;1030716;28;726;-60